Garrard, Kentucky
Current Conditions -  °F | °C
As of 7:53 PM on Tuesday 27 Jan 2015 (Local Time) from KLOZ Reporting Station
Overcast Overcast  
Wind Chill: 25°   Ceiling: 3100
Heat Index: 31°   Visibility: 10mi
Dew Point: 19°   Wind: 6mph
Humidity: 61%   Direction: 320°NW
Pressure: 30.13"   Gusts: NA
Location:  37.12°N, 83.75°W
Report Text: KLOZ 280053Z AUTO 32005KT 10SM OVC031 M01/M07 A3013 RMK AO2 SLP214 T10061072
Loading
Personal Weather Stations






























Interactive Weather Map New forecast layout! Learn more

10-Day Weather Forecast

Advertisements
Track Severe Weather on mobile